createdAt,value
2022-10-24T00:01:25.485Z,39.70
2022-10-24T00:03:53.070Z,39.73
2022-10-24T00:06:21.165Z,40.10
2022-10-24T00:08:49.095Z,39.77
2022-10-24T00:11:19.469Z,40.77
2022-10-24T00:13:47.076Z,40.53
2022-10-24T00:16:15.007Z,40.73
2022-10-24T00:18:44.324Z,39.73
2022-10-24T00:21:12.194Z,39.87
2022-10-24T00:23:40.106Z,39.30
2022-10-24T00:26:08.710Z,39.90
2022-10-24T00:28:37.206Z,38.60
2022-10-24T00:31:06.442Z,38.80
2022-10-24T00:33:34.278Z,38.83
2022-10-24T00:36:03.249Z,38.90
2022-10-24T00:38:30.826Z,39.00
2022-10-24T00:40:58.373Z,39.70
2022-10-24T00:43:27.297Z,40.57
2022-10-24T00:45:56.639Z,39.43
2022-10-24T00:48:28.201Z,39.90
2022-10-24T00:50:59.898Z,40.23
2022-10-24T00:53:32.618Z,39.13
2022-10-24T00:56:03.117Z,39.40
2022-10-24T00:58:33.586Z,41.33
2022-10-24T01:01:01.546Z,38.60
2022-10-24T01:03:29.267Z,40.43
2022-10-24T01:06:21.325Z,40.40
2022-10-24T01:08:59.645Z,40.07
2022-10-24T01:11:41.598Z,39.33
2022-10-24T01:14:19.462Z,38.80
2022-10-24T01:16:51.825Z,40.33
2022-10-24T01:19:42.780Z,39.50
2022-10-24T01:22:16.224Z,40.00
2022-10-24T01:25:05.473Z,39.03
2022-10-24T01:27:50.861Z,39.10
2022-10-24T01:30:20.594Z,39.00
2022-10-24T01:32:56.905Z,38.60
2022-10-24T01:35:35.856Z,39.27
2022-10-24T01:38:10.950Z,39.60
2022-10-24T01:40:45.517Z,40.57
2022-10-24T01:43:16.110Z,39.00
2022-10-24T01:45:50.121Z,40.13
2022-10-24T01:48:22.606Z,38.90
2022-10-24T01:50:53.515Z,39.37
2022-10-24T01:53:24.883Z,39.97
2022-10-24T01:55:54.449Z,38.37
2022-10-24T01:58:22.137Z,40.70
2022-10-24T02:00:53.149Z,39.57
2022-10-24T02:03:25.544Z,40.63
2022-10-24T02:05:57.424Z,40.33
2022-10-24T02:08:29.414Z,38.47
2022-10-24T02:11:01.207Z,38.00
2022-10-24T02:13:35.210Z,39.00
2022-10-24T02:16:06.110Z,37.70
2022-10-24T02:18:34.539Z,37.57
2022-10-24T02:21:13.795Z,40.77
2022-10-24T02:23:48.594Z,39.57
2022-10-24T02:26:27.938Z,40.40
2022-10-24T02:28:59.851Z,40.17
2022-10-24T02:31:35.489Z,39.47
2022-10-24T02:34:06.920Z,39.40
2022-10-24T02:36:36.750Z,39.37
2022-10-24T02:39:08.004Z,41.57
2022-10-24T02:41:38.586Z,40.00
2022-10-24T02:44:08.061Z,40.10
2022-10-24T02:46:37.894Z,42.03
2022-10-24T02:49:06.362Z,41.20
2022-10-24T02:51:36.742Z,43.17
2022-10-24T02:54:05.108Z,41.07
2022-10-24T02:56:32.722Z,42.60
2022-10-24T02:59:00.432Z,42.13
2022-10-24T03:01:28.145Z,42.70
2022-10-24T03:03:57.133Z,43.80
2022-10-24T03:06:25.010Z,42.33
2022-10-24T03:08:52.542Z,43.63
2022-10-24T03:11:20.342Z,44.23
2022-10-24T03:13:47.876Z,43.50
2022-10-24T03:16:15.405Z,44.07
2022-10-24T03:18:42.966Z,46.10
2022-10-24T03:21:11.944Z,46.40
2022-10-24T03:23:39.489Z,46.20
2022-10-24T03:26:07.541Z,46.33
2022-10-24T03:28:35.224Z,48.63
2022-10-24T03:31:02.764Z,49.13
2022-10-24T03:33:30.354Z,50.57
2022-10-24T03:35:58.201Z,53.77
2022-10-24T03:38:27.108Z,53.97
2022-10-24T03:40:54.726Z,52.77
2022-10-24T03:43:22.277Z,55.80
2022-10-24T03:45:49.793Z,57.10
2022-10-24T03:48:17.442Z,56.40
2022-10-24T03:50:44.973Z,56.93
2022-10-24T03:53:12.685Z,57.83
2022-10-24T03:55:41.591Z,62.70
2022-10-24T03:58:09.227Z,58.73
2022-10-24T04:00:40.323Z,59.73
2022-10-24T04:03:09.628Z,60.97
2022-10-24T04:05:37.204Z,63.07
2022-10-24T04:08:05.169Z,65.40
2022-10-24T04:10:32.690Z,63.67
2022-10-24T04:13:01.585Z,64.13
2022-10-24T04:15:29.181Z,65.47
2022-10-24T04:17:56.716Z,66.70
2022-10-24T04:20:24.287Z,67.10
2022-10-24T04:22:51.839Z,68.53
2022-10-24T04:25:19.829Z,70.40
2022-10-24T04:27:47.572Z,73.43
2022-10-24T04:30:17.104Z,72.50
2022-10-24T04:32:45.028Z,73.97
2022-10-24T04:35:13.854Z,75.50
2022-10-24T04:37:41.562Z,76.40
2022-10-24T04:40:09.998Z,73.60
2022-10-24T04:42:37.549Z,74.97
2022-10-24T04:45:05.826Z,76.30
2022-10-24T04:47:34.702Z,75.63
2022-10-24T04:50:02.369Z,75.93
2022-10-24T04:52:29.939Z,75.73
2022-10-24T04:54:57.473Z,76.87
2022-10-24T04:57:25.014Z,73.23
2022-10-24T04:59:52.622Z,74.00
2022-10-24T05:02:20.602Z,77.07
2022-10-24T05:04:49.512Z,74.23
2022-10-24T05:07:17.094Z,78.13
2022-10-24T05:09:44.630Z,78.17
2022-10-24T05:12:12.198Z,86.27
2022-10-24T05:14:39.751Z,79.60
2022-10-24T05:17:07.505Z,79.27
2022-10-24T05:19:36.267Z,81.83
2022-10-24T05:22:07.284Z,79.07
2022-10-24T05:24:37.634Z,82.50
2022-10-24T05:27:05.574Z,81.23
2022-10-24T05:29:33.117Z,81.00
2022-10-24T05:32:00.693Z,81.17
2022-10-24T05:34:28.566Z,82.53
2022-10-24T05:36:56.138Z,80.47
2022-10-24T05:39:25.096Z,81.10
2022-10-24T05:41:55.275Z,77.87
2022-10-24T05:44:23.283Z,79.37
2022-10-24T05:46:50.827Z,76.83
2022-10-24T05:49:18.362Z,73.53
2022-10-24T05:51:46.011Z,74.33
2022-10-24T05:56:47.455Z,75.77
2022-10-24T05:59:15.305Z,77.40
2022-10-24T06:01:43.150Z,72.63
2022-10-24T06:04:13.043Z,78.17
2022-10-24T06:06:42.625Z,72.73
2022-10-24T06:09:10.574Z,72.47
2022-10-24T06:11:38.236Z,72.67
2022-10-24T06:14:07.150Z,74.30
2022-10-24T06:16:34.714Z,74.67
2022-10-24T06:19:02.339Z,75.37
2022-10-24T06:21:30.008Z,77.10
2022-10-24T06:23:58.129Z,80.77
2022-10-24T06:26:26.084Z,78.73
2022-10-24T06:28:54.601Z,76.17
2022-10-24T06:31:25.615Z,72.47
2022-10-24T06:33:54.051Z,72.70
2022-10-24T06:36:21.646Z,73.57
2022-10-24T06:38:49.599Z,71.77
2022-10-24T06:41:18.038Z,70.87
2022-10-24T06:43:45.660Z,69.40
2022-10-24T06:46:15.859Z,66.80
2022-10-24T06:48:45.570Z,64.93
2022-10-24T06:51:15.978Z,61.83
2022-10-24T06:53:43.529Z,59.97
2022-10-24T06:56:11.333Z,57.30
2022-10-24T06:58:39.968Z,53.33
2022-10-24T07:01:12.739Z,53.90
2022-10-24T07:03:40.374Z,50.67
2022-10-24T07:06:13.601Z,47.93
2022-10-24T07:08:41.314Z,44.70
2022-10-24T07:11:08.844Z,42.93
2022-10-24T07:13:36.394Z,40.30
2022-10-24T07:16:03.953Z,40.70
2022-10-24T07:18:31.548Z,39.40
2022-10-24T07:21:02.761Z,37.80
2022-10-24T07:23:31.989Z,36.23
2022-10-24T07:26:02.739Z,36.97
2022-10-24T07:28:30.626Z,39.63
2022-10-24T07:30:58.242Z,39.77
2022-10-24T07:33:26.303Z,37.83
2022-10-24T07:35:53.860Z,38.17
2022-10-24T07:38:21.774Z,37.80
2022-10-24T07:40:51.134Z,38.67
2022-10-24T07:43:18.870Z,37.60
2022-10-24T07:45:50.570Z,36.40
2022-10-24T07:48:19.908Z,36.60
2022-10-24T07:50:48.497Z,37.07
2022-10-24T07:53:17.022Z,37.13
2022-10-24T07:55:45.175Z,36.50
2022-10-24T07:58:14.862Z,36.20
2022-10-24T08:00:45.226Z,37.87
2022-10-24T08:03:13.356Z,36.80
2022-10-24T08:05:41.358Z,37.70
2022-10-24T08:08:30.946Z,37.83
2022-10-24T08:10:57.101Z,37.83
2022-10-24T08:13:26.024Z,37.33
2022-10-24T08:15:53.914Z,36.60
2022-10-24T08:18:21.430Z,37.17
2022-10-24T08:20:57.927Z,37.17
2022-10-24T08:23:25.799Z,36.80
2022-10-24T08:25:53.697Z,36.47
2022-10-24T08:28:23.418Z,37.37
2022-10-24T08:30:59.617Z,36.57
2022-10-24T08:33:27.849Z,38.47
2022-10-24T08:35:59.780Z,37.17
2022-10-24T08:38:27.760Z,36.20
2022-10-24T08:40:55.489Z,35.97
2022-10-24T08:43:23.689Z,36.60
2022-10-24T08:45:59.629Z,37.10
2022-10-24T08:48:33.134Z,35.73
2022-10-24T08:51:08.801Z,37.00
2022-10-24T08:53:36.931Z,36.53
2022-10-24T08:56:05.146Z,36.90
2022-10-24T08:58:37.004Z,38.33
2022-10-24T09:01:13.704Z,36.23
2022-10-24T09:04:01.340Z,36.40
2022-10-24T09:06:31.127Z,35.67
2022-10-24T09:09:00.970Z,36.37
2022-10-24T09:11:37.778Z,37.10
2022-10-24T09:14:12.881Z,35.97
2022-10-24T09:16:42.962Z,36.10
2022-10-24T09:19:15.648Z,34.50
2022-10-24T09:21:45.403Z,34.57
2022-10-24T09:24:24.784Z,34.67
2022-10-24T09:26:52.362Z,35.90
2022-10-24T09:29:19.903Z,33.90
2022-10-24T09:31:49.371Z,34.13
2022-10-24T09:34:18.695Z,36.20
2022-10-24T09:36:46.650Z,34.33
2022-10-24T09:39:34.454Z,33.63
2022-10-24T09:42:03.022Z,34.27
2022-10-24T09:44:40.986Z,35.13
2022-10-24T09:47:24.725Z,35.20
2022-10-24T09:49:53.892Z,33.73
2022-10-24T09:52:25.593Z,33.80
2022-10-24T09:55:08.358Z,31.87
2022-10-24T09:57:40.835Z,32.57
2022-10-24T10:00:23.030Z,32.30
2022-10-24T10:03:02.881Z,31.00
2022-10-24T10:05:44.350Z,31.27
2022-10-24T10:08:17.079Z,31.53
2022-10-24T10:10:44.655Z,30.37
2022-10-24T10:13:23.882Z,30.00
2022-10-24T10:15:54.493Z,29.10
2022-10-24T10:18:33.109Z,29.13
2022-10-24T10:21:08.818Z,30.70
2022-10-24T10:23:39.101Z,29.33
2022-10-24T10:26:27.200Z,29.33
2022-10-24T10:29:00.650Z,30.43
2022-10-24T10:31:35.475Z,28.10
2022-10-24T10:34:18.885Z,27.90
2022-10-24T10:37:03.809Z,26.67
2022-10-24T10:39:48.879Z,26.77
2022-10-24T10:42:22.676Z,25.87
2022-10-24T10:45:04.155Z,26.67
2022-10-24T10:47:41.023Z,25.07
2022-10-24T10:50:23.294Z,25.10
2022-10-24T10:52:52.329Z,23.83
2022-10-24T10:55:28.740Z,23.83
2022-10-24T10:58:07.761Z,22.07
2022-10-24T11:00:48.767Z,23.27
2022-10-24T11:03:24.986Z,23.70
2022-10-24T11:06:06.602Z,23.13
2022-10-24T11:08:59.366Z,22.10
2022-10-24T11:11:32.091Z,22.07
2022-10-24T11:14:05.421Z,21.17
2022-10-24T11:16:33.402Z,20.90
2022-10-24T11:19:05.497Z,20.17
2022-10-24T11:21:36.315Z,20.70
2022-10-24T11:24:13.750Z,22.43
2022-10-24T11:26:46.388Z,20.47
2022-10-24T11:29:20.275Z,20.37
2022-10-24T11:31:51.152Z,20.27
2022-10-24T11:34:22.510Z,19.23
2022-10-24T11:36:55.924Z,19.23
2022-10-24T11:39:28.846Z,19.60
2022-10-24T11:42:02.472Z,18.50
2022-10-24T11:44:47.370Z,18.07
2022-10-24T11:47:47.048Z,19.00
2022-10-24T11:50:25.510Z,18.37
2022-10-24T11:52:59.606Z,16.77
2022-10-24T11:55:37.317Z,15.90
2022-10-24T11:58:08.381Z,16.27
2022-10-24T12:00:48.283Z,14.80
2022-10-24T12:03:36.906Z,14.50
2022-10-24T12:06:20.878Z,14.67
2022-10-24T12:09:24.994Z,14.03
2022-10-24T12:12:13.838Z,14.00
2022-10-24T12:15:06.559Z,12.57
2022-10-24T12:17:47.410Z,13.20
2022-10-24T12:20:18.937Z,13.17
2022-10-24T12:22:47.993Z,12.60
2022-10-24T12:25:22.099Z,12.40
2022-10-24T12:27:57.019Z,12.17
2022-10-24T12:30:26.080Z,12.90
2022-10-24T12:32:58.497Z,12.83
2022-10-24T12:35:51.782Z,12.23
2022-10-24T12:39:07.539Z,13.50
2022-10-24T12:41:43.369Z,14.00
2022-10-24T12:44:51.437Z,14.07
2022-10-24T12:47:38.440Z,13.93
2022-10-24T12:50:43.278Z,13.90
2022-10-24T12:53:32.220Z,13.83
2022-10-24T12:59:18.394Z,13.43
2022-10-24T13:01:47.632Z,13.27
2022-10-24T13:04:48.506Z,12.77
2022-10-24T13:07:48.514Z,11.90
2022-10-24T13:10:36.418Z,12.63
2022-10-24T13:13:28.231Z,12.13
2022-10-24T13:16:01.811Z,11.90
2022-10-24T13:18:44.262Z,12.27
2022-10-24T13:21:25.317Z,12.10
2022-10-24T13:23:53.161Z,11.37
2022-10-24T13:26:40.413Z,12.43
2022-10-24T13:29:14.669Z,11.83
2022-10-24T13:31:46.657Z,12.23
2022-10-24T13:34:18.786Z,11.27
2022-10-24T13:36:50.953Z,11.70
2022-10-24T13:39:22.853Z,11.60
2022-10-24T13:41:56.999Z,11.43
2022-10-24T13:44:30.581Z,11.13
2022-10-24T13:47:03.478Z,10.80
2022-10-24T13:49:35.247Z,11.73
2022-10-24T13:52:09.970Z,12.40
2022-10-24T13:54:39.114Z,12.03
2022-10-24T13:57:25.207Z,11.90
2022-10-24T14:00:00.917Z,12.37
2022-10-24T14:02:33.666Z,12.67
2022-10-24T14:05:03.616Z,13.50
2022-10-24T14:07:34.582Z,13.93
2022-10-24T14:10:05.923Z,13.80
2022-10-24T14:12:36.227Z,15.10
2022-10-24T14:15:06.353Z,14.93
2022-10-24T14:17:35.771Z,15.53
2022-10-24T14:20:21.897Z,16.93
2022-10-24T14:22:50.796Z,15.67
2022-10-24T14:25:32.973Z,16.43
2022-10-24T14:28:02.891Z,16.73
2022-10-24T14:30:35.061Z,17.80
2022-10-24T14:33:21.961Z,20.40
2022-10-24T14:35:52.379Z,21.03
2022-10-24T14:38:24.638Z,21.40
2022-10-24T14:41:06.385Z,21.33
2022-10-24T14:43:37.149Z,22.93
2022-10-24T14:46:25.943Z,21.70
2022-10-24T14:48:54.634Z,22.37
2022-10-24T14:51:27.398Z,21.97
2022-10-24T14:53:58.113Z,23.13
2022-10-24T14:56:28.157Z,22.73
2022-10-24T14:58:58.291Z,22.77
2022-10-24T15:01:26.734Z,24.97
2022-10-24T15:03:56.095Z,23.70
2022-10-24T15:06:26.257Z,23.47
2022-10-24T15:09:07.075Z,23.13
2022-10-24T15:11:39.354Z,24.90
2022-10-24T15:14:07.524Z,23.87
2022-10-24T15:16:37.577Z,24.43
2022-10-24T15:19:06.999Z,24.43
2022-10-24T15:21:38.838Z,24.63
2022-10-24T15:24:19.489Z,25.87
2022-10-24T15:26:47.442Z,27.73
2022-10-24T15:29:20.693Z,28.37
2022-10-24T15:31:50.403Z,31.60
2022-10-24T15:34:19.629Z,31.17
2022-10-24T15:36:48.781Z,30.43
2022-10-24T15:39:20.938Z,29.23
2022-10-24T15:41:49.069Z,29.87
2022-10-24T15:44:20.481Z,30.17
2022-10-24T15:46:49.422Z,30.43
2022-10-24T15:49:17.298Z,30.57
2022-10-24T15:51:50.081Z,30.97
2022-10-24T15:54:21.775Z,30.07
2022-10-24T15:56:49.433Z,30.97
2022-10-24T15:59:18.403Z,30.40
2022-10-24T16:01:49.613Z,31.00
2022-10-24T16:04:18.673Z,29.00
2022-10-24T16:06:46.250Z,31.00
2022-10-24T16:09:16.196Z,29.40
2022-10-24T16:11:45.102Z,30.30
2022-10-24T16:14:14.610Z,30.57
2022-10-24T16:16:42.243Z,31.37
2022-10-24T16:19:10.580Z,31.50
2022-10-24T16:21:40.447Z,30.33
2022-10-24T16:24:08.739Z,30.77
2022-10-24T16:26:38.557Z,31.90
2022-10-24T16:29:14.458Z,30.47
2022-10-24T16:31:43.810Z,30.40
2022-10-24T16:34:11.349Z,30.13
2022-10-24T16:36:40.865Z,30.97
2022-10-24T16:39:08.918Z,32.80
2022-10-24T16:41:36.605Z,31.40
2022-10-24T16:44:04.694Z,30.20
2022-10-24T16:46:33.790Z,30.67
2022-10-24T16:49:01.354Z,31.00
2022-10-24T16:51:32.257Z,30.17
2022-10-24T16:54:00.418Z,31.67
2022-10-24T16:56:28.302Z,31.33
2022-10-24T16:58:55.875Z,31.50
2022-10-24T17:01:23.893Z,33.67
2022-10-24T17:03:52.852Z,32.23
2022-10-24T17:06:20.391Z,32.00
2022-10-24T17:08:47.963Z,31.30
2022-10-24T17:11:43.420Z,31.10
2022-10-24T17:14:03.177Z,32.77
2022-10-24T17:16:32.122Z,32.67
2022-10-24T17:19:15.707Z,32.50
2022-10-24T17:21:46.674Z,31.47
2022-10-24T17:24:15.343Z,32.30
2022-10-24T17:26:43.169Z,32.00
2022-10-24T17:29:13.765Z,31.90
2022-10-24T17:31:41.571Z,33.30
2022-10-24T17:34:11.734Z,33.40
2022-10-24T17:36:41.172Z,32.87
2022-10-24T17:39:14.315Z,32.20
2022-10-24T17:41:42.610Z,31.70
2022-10-24T17:44:15.938Z,32.90
2022-10-24T17:46:44.357Z,32.83
2022-10-24T17:49:20.791Z,32.13
2022-10-24T17:51:49.710Z,31.97
2022-10-24T17:54:17.443Z,31.53
2022-10-24T17:56:44.976Z,32.50
2022-10-24T17:59:12.758Z,33.60
2022-10-24T18:01:40.419Z,32.90
2022-10-24T18:04:08.563Z,31.40
2022-10-24T18:06:40.799Z,33.50
2022-10-24T18:09:11.002Z,32.23
2022-10-24T18:11:39.803Z,32.33
2022-10-24T18:14:07.541Z,33.23
2022-10-24T18:16:37.720Z,32.97
2022-10-24T18:19:06.175Z,32.07
2022-10-24T18:21:34.086Z,32.67
2022-10-24T18:24:02.966Z,31.10
2022-10-24T18:26:30.518Z,33.47
2022-10-24T18:28:58.951Z,32.10
2022-10-24T18:31:28.229Z,32.27
2022-10-24T18:33:56.450Z,32.90
2022-10-24T18:36:26.073Z,31.03
2022-10-24T18:38:55.360Z,32.70
2022-10-24T18:41:36.302Z,32.93
2022-10-24T18:44:21.334Z,32.83
2022-10-24T18:46:49.651Z,32.20
2022-10-24T18:49:18.122Z,32.53
2022-10-24T18:51:52.068Z,32.57
2022-10-24T18:54:21.372Z,33.67
2022-10-24T18:56:51.871Z,32.67
2022-10-24T18:59:21.324Z,33.07
2022-10-24T19:01:58.914Z,31.60
2022-10-24T19:04:27.166Z,34.03
2022-10-24T19:06:58.442Z,32.50
2022-10-24T19:09:27.602Z,32.30
2022-10-24T19:11:56.802Z,32.30
2022-10-24T19:14:25.104Z,33.13
2022-10-24T19:16:54.223Z,32.93
2022-10-24T19:19:27.221Z,31.30
2022-10-24T19:21:55.589Z,32.20
2022-10-24T19:24:23.434Z,31.83
2022-10-24T19:26:50.984Z,31.57
2022-10-24T19:29:19.923Z,31.93
2022-10-24T19:31:47.552Z,31.20
2022-10-24T19:34:16.636Z,32.70
2022-10-24T19:36:44.210Z,31.10
2022-10-24T19:39:11.879Z,31.27
2022-10-24T19:41:39.448Z,31.43
2022-10-24T19:44:06.991Z,33.43
2022-10-24T19:46:35.903Z,30.90
2022-10-24T19:49:03.682Z,31.70
2022-10-24T19:51:31.219Z,31.80
2022-10-24T19:53:58.780Z,32.97
2022-10-24T19:56:28.985Z,32.87
2022-10-24T19:58:57.170Z,33.07
2022-10-24T20:01:26.920Z,33.27
2022-10-24T20:03:57.055Z,34.50
2022-10-24T20:06:25.866Z,33.43
2022-10-24T20:08:53.498Z,32.10
2022-10-24T20:11:21.265Z,34.27
2022-10-24T20:13:50.237Z,34.20
2022-10-24T20:16:18.082Z,33.80
2022-10-24T20:18:45.757Z,34.23
2022-10-24T20:21:17.612Z,32.53
2022-10-24T20:23:48.507Z,33.43
2022-10-24T20:26:18.500Z,34.13
2022-10-24T20:28:48.430Z,32.33
2022-10-24T20:31:20.799Z,33.70
2022-10-24T20:33:48.614Z,32.60
2022-10-24T20:36:17.561Z,34.70
2022-10-24T20:38:45.239Z,33.93
2022-10-24T20:41:12.821Z,36.30
2022-10-24T20:43:40.438Z,34.10
2022-10-24T20:46:08.131Z,34.60
2022-10-24T20:48:36.562Z,35.10
2022-10-24T20:51:06.058Z,34.47
2022-10-24T20:53:34.944Z,35.00
2022-10-24T20:56:07.617Z,36.17
2022-10-24T20:58:38.090Z,35.40
2022-10-24T21:01:07.582Z,34.27
2022-10-24T21:03:35.984Z,35.93
2022-10-24T21:06:03.806Z,35.83
2022-10-24T21:08:31.676Z,35.93
2022-10-24T21:11:00.557Z,34.73
2022-10-24T21:13:28.082Z,35.20
2022-10-24T21:15:57.246Z,35.40
2022-10-24T21:18:24.866Z,36.07
2022-10-24T21:20:52.435Z,38.90
2022-10-24T21:23:20.022Z,36.37
2022-10-24T21:25:47.554Z,35.57
2022-10-24T21:28:16.430Z,35.97
2022-10-24T21:30:43.941Z,36.07
2022-10-24T21:33:11.533Z,35.60
2022-10-24T21:35:39.621Z,36.67
2022-10-24T21:38:07.193Z,36.40
2022-10-24T21:40:34.780Z,38.23
2022-10-24T21:43:03.117Z,36.27
2022-10-24T21:45:32.581Z,37.10
2022-10-24T21:48:00.163Z,36.50
2022-10-24T21:50:27.703Z,35.43
2022-10-24T21:52:55.279Z,35.10
2022-10-24T21:55:22.962Z,37.17
2022-10-24T21:57:50.500Z,37.10
2022-10-24T22:00:18.145Z,37.67
2022-10-24T22:02:47.303Z,36.70
2022-10-24T22:05:15.082Z,35.87
2022-10-24T22:07:43.974Z,37.77
2022-10-24T22:10:13.738Z,36.00
2022-10-24T22:12:41.256Z,36.40
2022-10-24T22:15:09.363Z,36.73
2022-10-24T22:17:36.934Z,37.00
2022-10-24T22:20:06.682Z,38.63
2022-10-24T22:22:34.222Z,37.73
2022-10-24T22:25:01.976Z,37.30
2022-10-24T22:27:29.487Z,38.80
2022-10-24T22:29:57.057Z,38.67
2022-10-24T22:32:24.958Z,38.27
2022-10-24T22:34:59.502Z,39.50
2022-10-24T22:37:30.975Z,38.77
2022-10-24T22:39:59.436Z,38.13
2022-10-24T22:42:27.322Z,38.03
2022-10-24T22:44:56.329Z,36.87
2022-10-24T22:47:42.875Z,38.53
2022-10-24T22:50:26.067Z,36.20
2022-10-24T22:52:55.654Z,37.10
2022-10-24T22:55:32.631Z,36.47
2022-10-24T22:58:00.698Z,35.97
2022-10-24T23:00:28.784Z,37.20
2022-10-24T23:03:02.733Z,36.47
2022-10-24T23:05:36.982Z,37.73
2022-10-24T23:08:10.425Z,37.07
2022-10-24T23:10:39.863Z,37.10
2022-10-24T23:13:09.335Z,37.57
2022-10-24T23:15:37.510Z,39.37
2022-10-24T23:18:05.770Z,37.70
2022-10-24T23:20:35.920Z,38.67
2022-10-24T23:23:16.233Z,40.20
2022-10-24T23:25:53.329Z,38.63
2022-10-24T23:28:30.208Z,38.57
2022-10-24T23:30:58.396Z,39.20
2022-10-24T23:33:29.214Z,39.40
2022-10-24T23:36:00.165Z,40.37
2022-10-24T23:38:28.772Z,42.07
2022-10-24T23:40:58.369Z,41.53
2022-10-24T23:43:26.419Z,42.37
2022-10-24T23:45:59.188Z,40.93
2022-10-24T23:48:40.183Z,41.27
2022-10-24T23:51:12.841Z,42.40
2022-10-24T23:53:50.246Z,42.50
2022-10-24T23:56:21.446Z,42.00
2022-10-24T23:58:49.408Z,42.13
